Portada
METAR-TAF:

METAR-TAF

Aeroports :

Ahwaz, Iran

latitud: 31-20N, longitud: 048-40E, altitud: 20 m

Observació

L'informe es va fer fa 34 minuts, a les 22:00 UTC
Vent 4 kt del Nord-Oest
Temperatura 25°C
Humitat 21%
Pressió 1011 hPa
Visibilitat 10 km o més
sense núvols per sota de 1500 mi sense presència de cumulonimbus.

METAR: OIAW 242200Z 31004KT CAVOK 25/01 Q1011

Hora: 02:04 (22:34 UTC)

Pronòstic

L'informe es va fer fa 4 hores i 44 minuts, a les 17:50 UTC
Pronòstic vàlid del 24 a les 18 UTC al 25 a les 24 UTC
Vent 6 kt del Oest
Visibilitat: 7000 m

TAF: OIAW 241750Z 2418/2524 28006KT 7000 NSC

Observacions i pronòstics meteorològics de més de 4000 aeroports (METAR i TAF).

Les estacions disponibles són els punts grocs i vermells al mapa.

Posi el ratolí al punt desitjat per veure el nom de l'estació.

Feu clic per veure les observacions i els pronòstics meteorològics.

Per canviar el mapa: feu clic els botons verds amb una creu de color negre per apropar; al botó verd amb un guió per allunyar la imatge; o en les fletxes verdes per a mapes adjacents.


METAR-TAF: